Accueil
METAR-TAF:

METAR-TAF

Aéroports :

Aéroport de Valence-Chabeuil

Valence, France

latitude: 44-54-58N, longitude: 4-58-06E, altitude: 160 m

Observation

Le bulletin a été fait il y a 3 heures et 14 minutes, à 18:00 UTC
Vent 7 kt de sud
Température 27°C
Humidité 48%
Pression 1013 hPa
Visibilité 10 km ou plus
pas de nuages en-dessous de 1500 mètres et pas de cumulonimbus.

METAR: LFLU 161800Z AUTO 17007KT CAVOK 27/15 Q1013

Heure: 23:14 (21:14 UTC)


TAF: absent

Observations et prévisions météorologiques de plus de 4000 aéroports (messages METAR et TAF).

Les stations disponibles sont représentées par des disques jaunes et rouges sur la carte.

Passer la souris dessus pour voir le nom de la station.

Cliquer dessus pour voir les observations et prévisions météorologiques.

Pour changer de carte: cliquez sur les boutons verts avec une croix noire pour zoomer, sur le bouton vert avec un tiret pour effectuer un zoom arrière, ou sur les flèches vertes pour les cartes adjacentes.


METAR-TAF: